Bookmark and Share
Track history (hours):
 

Prudentia

Last reported at 2014-Apr-24 16:11 UTC. Time now 2014-Apr-24 19:44 UTC.
Position N 51°51' E 005°49'.

Length 70 m; draft 1.8 m.

Type: Ship. MMSI: 244660779.

NotesDate/timePositionNaut miles runAvg speedWind from/ knotsBaromVisibWave heightAir tempDewpointWater temp
2014-Apr-24 16:11N 51°51' E 005°49'0 0.0
2014-Apr-24 15:30N 51°51' E 005°49'1 0.2
2014-Apr-24 10:04N 51°52' E 005°50'6 7.3
2014-Apr-24 09:13N 51°53' E 006°00'10 9.6
2014-Apr-24 08:09N 51°50' E 006°16'6 9.3
2014-Apr-24 07:32N 51°45' E 006°22'2 0.0
2014-Apr-22 09:24N 51°47' E 006°19'18 4.4
2014-Apr-22 05:19N 51°51' E 005°51'1 1.3
2014-Apr-22 04:16N 51°51' E 005°49'  
2014-Apr-17 06:20N 51°51' E 005°50'3 3.6
2014-Apr-17 05:33N 51°53' E 005°46'5 5.0
2014-Apr-17 04:32N 51°54' E 005°38'3 3.2
2014-Apr-17 03:33N 51°54' E 005°33'0 0.0
2014-Apr-17 02:33N 51°54' E 005°33'0 0.0
2014-Apr-17 01:33N 51°54' E 005°33'0 0.0
2014-Apr-17 00:33N 51°54' E 005°33'0 0.0
2014-Apr-16 23:33N 51°54' E 005°33'0 0.0
2014-Apr-16 22:33N 51°54' E 005°33'0 0.0
2014-Apr-16 21:33N 51°54' E 005°33'0 0.0
2014-Apr-16 20:33N 51°54' E 005°33'0 0.0
2014-Apr-16 19:33N 51°54' E 005°33'0 0.0
2014-Apr-16 18:33N 51°54' E 005°33'0 0.0
2014-Apr-16 17:33N 51°54' E 005°33'3 2.9
2014-Apr-16 16:33N 51°53' E 005°28'4 4.3
2014-Apr-16 15:33N 51°56' E 005°23'6 5.5
2014-Apr-16 14:33N 51°59' E 005°15'4 4.4
2014-Apr-16 13:33N 51°60' E 005°08'3 3.1
2014-Apr-16 12:33N 51°59' E 005°03'5 5.3
2014-Apr-16 11:33N 51°57' E 004°55'6 6.3
2014-Apr-16 10:33N 51°55' E 004°46'6 6.1
2014-Apr-16 09:33N 51°54' E 004°36'4 4.3
2014-Apr-16 08:33N 51°55' E 004°29'3 3.1
2014-Apr-16 07:33N 51°53' E 004°25'0 0.0
2014-Apr-16 06:33N 51°53' E 004°25'0 0.4
2014-Apr-16 05:33N 51°53' E 004°26'0 0.0
2014-Apr-16 04:33N 51°53' E 004°26'0 0.0
2014-Apr-16 03:33N 51°53' E 004°26'0 0.0
2014-Apr-16 02:33N 51°53' E 004°26'0 0.0
2014-Apr-16 01:33N 51°53' E 004°26'0 0.0
2014-Apr-16 00:33N 51°53' E 004°26'0 0.0
2014-Apr-15 23:33N 51°53' E 004°26'0 0.0
2014-Apr-15 22:33N 51°53' E 004°26'0 0.1
2014-Apr-15 21:33N 51°53' E 004°25'4 3.8
2014-Apr-15 20:33N 51°55' E 004°30'0 0.0
2014-Apr-15 19:33N 51°55' E 004°30'0 0.0
2014-Apr-15 18:33N 51°55' E 004°30'0 0.0
2014-Apr-15 17:33N 51°55' E 004°30'0 0.0
2014-Apr-15 16:33N 51°55' E 004°30'0 0.1
2014-Apr-15 14:18N 51°55' E 004°31'5 2.6
2014-Apr-15 12:34N 51°53' E 004°37'7 7.4
2014-Apr-15 11:34N 51°46' E 004°38'7 6.8
2014-Apr-15 10:30N 51°42' E 004°28'3 1.3
2014-Apr-15 08:29N 51°41' E 004°24'0 0.0
2014-Apr-15 05:30N 51°41' E 004°24'0 0.0
2014-Apr-15 03:34N 51°41' E 004°24'0 0.0
2014-Apr-15 02:34N 51°41' E 004°24'0 0.0
2014-Apr-15 01:34N 51°41' E 004°24'0 0.0
2014-Apr-15 00:29N 51°41' E 004°24'0 0.0
2014-Apr-14 23:34N 51°41' E 004°24'0 0.0
2014-Apr-14 22:34N 51°41' E 004°24'0 0.0
2014-Apr-14 21:32N 51°41' E 004°24'0 0.0
2014-Apr-14 19:32N 51°41' E 004°24'0 0.0
2014-Apr-14 18:32N 51°41' E 004°24'0 0.0
2014-Apr-14 17:31N 51°41' E 004°24'0 0.0
2014-Apr-14 16:34N 51°41' E 004°24'  

Dump ship's entire track history

sailing weather and tide predictions

Prudentia — PB4900 — position and weather